Time;durP1;ratioP1;P1;durP2;ratioP2;P2;SDS_P1;SDS_P2;PMS_P1;PMS_P2;Temp;Humidity;BMP_temperature;BMP_pressure;BME280_temperature;BME280_humidity;BME280_pressure;Samples;Min_cycle;Max_cycle;Signal;HPM_P1;HPM_P2
2023/04/22 00:01:20;;;;;;;8.73;7.00;;;;;;;11.17;75.87;94540.72;5094762;28;20442;-81
2023/04/22 00:03:46;;;;;;;9.20;6.90;;;;;;;11.26;76.36;94558.25;5095269;28;20440;-81
2023/04/22 00:09:36;;;;;;;9.27;6.60;;;;;;;11.16;76.00;94554.81;5094621;28;20395;-81
2023/04/22 00:12:03;;;;;;;6.40;5.80;;;;;;;11.14;76.37;94551.50;5094622;28;20490;-82
2023/04/22 00:14:30;;;;;;;6.30;5.77;;;;;;;11.20;77.05;94550.09;5094382;28;20941;-81
2023/04/22 00:16:57;;;;;;;18.27;7.10;;;;;;;11.16;77.11;94545.13;5095347;28;20439;-81
2023/04/22 00:19:24;;;;;;;6.67;5.97;;;;;;;11.15;76.27;94540.03;5094119;28;20428;-81
2023/04/22 00:21:51;;;;;;;7.40;6.70;;;;;;;11.11;76.54;94542.13;5094755;28;20489;-81
2023/04/22 00:31:03;;;;;;;10.33;7.00;;;;;;;11.04;77.54;94534.97;5093558;28;20961;-80
2023/04/22 00:33:30;;;;;;;7.80;7.00;;;;;;;10.94;77.14;94540.19;5094064;28;20482;-81
2023/04/22 00:35:57;;;;;;;7.33;6.63;;;;;;;10.93;77.95;94535.09;5093893;28;20459;-81
2023/04/22 00:38:24;;;;;;;8.53;6.53;;;;;;;10.92;78.45;94542.13;5094477;28;20443;-81
2023/04/22 00:40:51;;;;;;;8.30;7.10;;;;;;;10.88;77.44;94542.56;5093982;28;20434;-80
2023/04/22 00:43:17;;;;;;;9.03;8.23;;;;;;;10.84;78.10;94540.22;5094432;28;20847;-82
2023/04/22 00:45:45;;;;;;;12.50;6.90;;;;;;;10.74;77.90;94531.56;5093982;28;20475;-81
2023/04/22 00:51:35;;;;;;;11.13;6.50;;;;;;;10.72;77.67;94543.16;5093159;28;20487;-81
2023/04/22 00:54:03;;;;;;;7.53;6.60;;;;;;;10.72;77.80;94543.16;5093952;28;20907;-79
2023/04/22 00:56:34;;;;;;;6.50;5.90;;;;;;;10.73;77.99;94556.13;5094679;28;20524;-80
2023/04/22 00:59:01;;;;;;;7.70;6.90;;;;;;;10.76;78.04;94553.22;5093987;28;20770;-81
2023/04/22 01:01:30;;;;;;;10.83;6.47;;;;;;;10.74;77.54;94544.66;5093684;28;20513;-80
2023/04/22 01:03:58;;;;;;;7.83;6.93;;;;;;;10.81;76.90;94553.63;5093529;28;20428;-81
2023/04/22 01:06:26;;;;;;;8.80;6.20;;;;;;;10.76;78.06;94555.03;5093777;28;20531;-81
2023/04/22 01:12:40;;;;;;;8.60;7.80;;;;;;;10.51;79.53;94557.25;5051343;28;20971;-81
2023/04/22 01:15:08;;;;;;;14.03;7.80;;;;;;;10.06;81.33;94561.28;5051302;28;20815;-81
2023/04/22 01:17:35;;;;;;;8.57;7.67;;;;;;;9.56;83.63;94569.16;5050364;28;20543;-81
2023/04/22 01:20:04;;;;;;;8.27;7.47;;;;;;;9.78;82.33;94568.09;5049872;28;20436;-82
2023/04/22 01:22:35;;;;;;;10.20;7.37;;;;;;;9.90;82.59;94561.81;5049689;28;20888;-82
2023/04/22 01:25:03;;;;;;;7.23;6.50;;;;;;;9.73;83.36;94568.50;5049717;28;20452;-81
2023/04/22 01:27:31;;;;;;;8.23;7.30;;;;;;;9.48;84.36;94575.03;5072849;28;20955;-81
2023/04/22 01:29:58;;;;;;;9.00;7.37;;;;;;;9.63;83.62;94565.03;5092607;28;20442;-81
2023/04/22 01:32:25;;;;;;;7.43;6.83;;;;;;;9.74;83.41;94562.31;5097210;28;20570;-81
2023/04/22 01:34:52;;;;;;;7.73;7.03;;;;;;;9.85;83.55;94575.31;5097553;28;20560;-82
2023/04/22 01:37:19;;;;;;;9.10;7.10;;;;;;;9.89;82.91;94563.59;5097558;28;20448;-81
2023/04/22 01:39:46;;;;;;;16.40;8.53;;;;;;;9.92;82.63;94565.97;5098223;28;20464;-81
2023/04/22 01:42:15;;;;;;;9.00;8.10;;;;;;;10.04;82.60;94571.06;5097521;28;20447;-79
2023/04/22 01:44:42;;;;;;;9.10;7.73;;;;;;;10.14;81.53;94569.31;5097445;28;20957;-81
2023/04/22 01:47:08;;;;;;;9.33;8.40;;;;;;;10.18;81.05;94570.72;5045780;28;20451;-82
2023/04/22 01:49:35;;;;;;;10.27;6.83;;;;;;;10.20;80.98;94563.53;5097715;28;20432;-81
2023/04/22 01:52:02;;;;;;;11.03;9.93;;;;;;;10.23;80.78;94565.91;5097099;28;20486;-81
2023/04/22 01:54:29;;;;;;;7.83;6.87;;;;;;;10.24;80.29;94560.53;5097184;28;20443;-82
2023/04/22 01:56:57;;;;;;;7.10;6.40;;;;;;;10.25;79.96;94561.34;5097036;28;20459;-81
2023/04/22 01:59:25;;;;;;;7.10;6.43;;;;;;;10.28;79.80;94555.00;5096474;28;20917;-81
2023/04/22 02:01:52;;;;;;;11.20;7.47;;;;;;;10.24;79.52;94555.28;5095583;28;20455;-82
2023/04/22 02:04:19;;;;;;;7.10;6.47;;;;;;;10.23;79.99;94552.78;5095756;28;20507;-81
2023/04/22 02:06:45;;;;;;;9.50;7.33;;;;;;;10.27;79.11;94564.66;5043294;28;20951;-81
2023/04/22 02:09:12;;;;;;;7.67;6.97;;;;;;;10.28;79.33;94566.31;5059743;28;20431;-82
2023/04/22 02:11:39;;;;;;;7.43;6.63;;;;;;;10.29;78.68;94554.88;5095856;28;20553;-82
2023/04/22 02:14:06;;;;;;;7.87;6.77;;;;;;;10.32;78.98;94557.22;5043782;28;20493;-82
2023/04/22 02:16:34;;;;;;;6.67;6.07;;;;;;;10.33;78.93;94565.91;5096692;28;20436;-81
2023/04/22 02:19:01;;;;;;;6.80;6.10;;;;;;;10.34;78.92;94565.78;5096823;28;20408;-81
2023/04/22 02:21:30;;;;;;;6.90;6.30;;;;;;;10.29;78.41;94557.50;5096606;28;20431;-81
2023/04/22 02:23:57;;;;;;;7.37;6.73;;;;;;;10.33;79.11;94564.13;5096545;28;21205;-82
2023/04/22 02:26:25;;;;;;;7.50;6.80;;;;;;;10.35;77.86;94562.19;5096837;28;20436;-81
2023/04/22 02:28:51;;;;;;;12.90;8.00;;;;;;;10.36;78.66;94561.22;5096982;28;20452;-81
2023/04/22 02:31:18;;;;;;;7.57;6.80;;;;;;;10.29;78.31;94551.41;5096609;28;20988;-81
2023/04/22 02:33:46;;;;;;;11.30;7.30;;;;;;;10.38;78.47;94561.91;5096884;28;20488;-81
2023/04/22 02:36:13;;;;;;;12.10;6.47;;;;;;;10.39;78.30;94557.50;5060955;28;20446;-81
2023/04/22 02:45:50;;;;;;;7.27;6.57;;;;;;;10.33;79.09;94569.38;5084877;28;20431;-80
2023/04/22 02:48:17;;;;;;;11.10;7.53;;;;;;;10.28;78.66;94561.06;5096091;28;20504;-81
2023/04/22 02:50:45;;;;;;;7.03;6.33;;;;;;;10.23;79.52;94563.28;5096477;28;20485;-81
2023/04/22 02:53:12;;;;;;;7.27;6.57;;;;;;;10.22;79.51;94565.09;5096248;28;20507;-81
2023/04/22 02:55:40;;;;;;;7.77;6.97;;;;;;;10.25;79.04;94566.59;5096145;28;20432;-80
2023/04/22 02:58:07;;;;;;;10.77;6.50;;;;;;;10.17;79.62;94558.56;5096193;28;20520;-81
2023/04/22 03:00:34;;;;;;;7.67;6.90;;;;;;;10.24;79.40;94564.94;5096327;28;20428;-80
2023/04/22 03:03:01;;;;;;;7.63;6.20;;;;;;;10.30;79.11;94574.06;5096281;28;20761;-81
2023/04/22 03:05:28;;;;;;;7.67;6.97;;;;;;;10.28;79.24;94576.81;5095866;28;21006;-80
2023/04/22 03:07:56;;;;;;;7.93;7.23;;;;;;;10.26;78.69;94573.50;5095522;28;20450;-81
2023/04/22 03:10:23;;;;;;;7.10;6.40;;;;;;;10.21;78.68;94583.56;5095004;28;20489;-81
2023/04/22 03:12:50;;;;;;;9.70;7.10;;;;;;;10.21;79.54;94578.34;5095134;28;20986;-80
2023/04/22 03:15:17;;;;;;;6.87;6.17;;;;;;;10.16;79.78;94577.88;5095117;28;20439;-81
2023/04/22 03:17:43;;;;;;;7.70;7.00;;;;;;;10.16;79.11;94580.50;5095875;28;20435;-81
2023/04/22 03:20:11;;;;;;;10.80;7.03;;;;;;;10.10;79.88;94578.41;5095644;28;20438;-80
2023/04/22 03:22:38;;;;;;;9.60;7.23;;;;;;;10.08;79.98;94585.56;5095963;28;20844;-80
2023/04/22 03:25:07;;;;;;;8.47;7.57;;;;;;;10.09;80.96;94579.34;5044383;28;20452;-80
2023/04/22 03:27:34;;;;;;;7.93;7.07;;;;;;;9.97;81.21;94578.66;5095823;28;20936;-81
2023/04/22 03:30:01;;;;;;;7.37;6.63;;;;;;;10.01;80.86;94581.84;5095715;28;20812;-82
2023/04/22 03:32:27;;;;;;;10.70;7.23;;;;;;;10.02;81.67;94586.94;5095082;28;20848;-80
2023/04/22 03:34:54;;;;;;;12.43;6.93;;;;;;;10.00;81.00;94588.03;5094958;28;20466;-80
2023/04/22 03:37:21;;;;;;;9.10;7.40;;;;;;;9.93;80.61;94593.81;5095366;28;20501;-80
2023/04/22 03:39:48;;;;;;;8.43;7.60;;;;;;;9.85;80.30;94601.53;5095064;28;20802;-81
2023/04/22 03:42:16;;;;;;;11.33;7.50;;;;;;;9.81;81.04;94594.03;5095445;28;20439;-81
2023/04/22 03:44:43;;;;;;;16.10;8.47;;;;;;;9.73;81.51;94602.56;5095442;28;20446;-80
2023/04/22 03:47:09;;;;;;;8.13;7.33;;;;;;;9.72;81.98;94598.28;5095393;28;20474;-81
2023/04/22 03:49:36;;;;;;;7.80;6.40;;;;;;;9.71;82.45;94604.50;5095601;28;20439;-80
2023/04/22 03:52:03;;;;;;;8.10;7.27;;;;;;;9.71;82.25;94603.66;5095121;28;20466;-81
2023/04/22 03:54:30;;;;;;;9.17;7.37;;;;;;;9.77;82.69;94600.50;5094223;28;20510;-81
2023/04/22 03:56:57;;;;;;;8.50;7.33;;;;;;;9.82;82.76;94591.28;5094782;28;21010;-80
2023/04/22 03:59:25;;;;;;;8.90;7.77;;;;;;;9.94;82.42;94600.72;5095121;28;20424;-80
2023/04/22 04:01:53;;;;;;;8.93;7.97;;;;;;;9.90;81.93;94604.56;5043599;28;20459;-82
2023/04/22 04:04:21;;;;;;;8.60;7.40;;;;;;;9.88;82.59;94605.69;5094693;28;20436;-81
2023/04/22 04:16:54;;;;;;;7.90;7.20;;;;;;;11.43;76.78;94607.44;5094661;28;20812;-80
2023/04/22 04:19:21;;;;;;;11.80;7.43;;;;;;;11.98;74.82;94612.81;5095138;28;20443;-80
2023/04/22 04:21:48;;;;;;;13.00;7.90;;;;;;;12.59;71.94;94612.19;5094455;28;20913;-82
2023/04/22 04:24:15;;;;;;;7.47;6.77;;;;;;;13.06;70.19;94613.78;5043267;28;20455;-81
2023/04/22 04:26:41;;;;;;;6.77;5.97;;;;;;;13.33;68.04;94609.25;5094560;28;20433;-81
2023/04/22 04:32:33;;;;;;;7.77;6.97;;;;;;;14.13;65.37;94614.31;5094161;28;20477;-81
2023/04/22 04:35:00;;;;;;;7.80;7.10;;;;;;;14.41;63.95;94617.56;5094652;28;20494;-81
2023/04/22 04:37:27;;;;;;;11.73;6.87;;;;;;;14.65;62.99;94627.41;5094331;28;20854;-81
2023/04/22 04:39:54;;;;;;;8.30;6.87;;;;;;;14.98;61.99;94631.75;5093707;28;20506;-81
2023/04/22 04:42:23;;;;;;;7.87;6.80;;;;;;;15.29;60.36;94639.88;5078048;28;20462;-81
2023/04/22 04:44:51;;;;;;;8.20;7.10;;;;;;;15.60;59.24;94641.88;5073833;28;20932;-82
2023/04/22 04:47:18;;;;;;;6.47;5.93;;;;;;;15.86;58.53;94642.50;5087097;28;20481;-81
2023/04/22 04:49:47;;;;;;;7.80;6.70;;;;;;;16.10;57.44;94647.75;5075044;28;20445;-80
2023/04/22 04:52:13;;;;;;;6.57;6.07;;;;;;;16.30;57.31;94656.13;5058697;28;20900;-81
2023/04/22 04:54:40;;;;;;;7.20;6.57;;;;;;;16.62;57.00;94664.97;5094195;28;20912;-82
2023/04/22 04:57:08;;;;;;;9.23;6.97;;;;;;;16.90;55.26;94658.22;5093959;28;20428;-82
2023/04/22 04:59:35;;;;;;;7.00;6.30;;;;;;;17.10;54.43;94661.25;5093746;28;20963;-81
2023/04/22 05:08:50;;;;;;;14.87;11.87;;;;;;;17.65;53.65;94668.97;5093829;28;20852;-83
2023/04/22 05:11:17;;;;;;;15.33;9.30;;;;;;;17.59;53.68;94667.03;5093831;28;20443;-82
2023/04/22 05:13:44;;;;;;;12.90;8.97;;;;;;;17.22;54.24;94659.84;5093984;28;20469;-82
2023/04/22 05:16:11;;;;;;;11.73;8.70;;;;;;;16.01;56.97;94658.53;5093484;28;20439;-83
2023/04/22 05:18:39;;;;;;;11.03;8.37;;;;;;;16.25;57.50;94673.53;5093638;28;20444;-83
2023/04/22 05:21:06;;;;;;;23.27;9.10;;;;;;;16.27;57.80;94676.84;5093359;28;20427;-83
2023/04/22 05:23:33;;;;;;;16.77;10.20;;;;;;;15.91;58.78;94661.38;5093786;28;20477;-83
2023/04/22 05:26:01;;;;;;;14.90;10.10;;;;;;;16.24;57.89;94666.59;5042253;28;20438;-82
2023/04/22 05:28:28;;;;;;;12.37;10.37;;;;;;;16.56;57.60;94668.31;5093937;28;20453;-82
2023/04/22 05:30:55;;;;;;;12.13;8.63;;;;;;;16.81;56.97;94669.06;5074888;28;20443;-82
2023/04/22 05:33:22;;;;;;;8.23;7.50;;;;;;;17.20;55.61;94675.09;5093707;28;20510;-82
2023/04/22 05:35:50;;;;;;;9.37;8.30;;;;;;;17.39;54.73;94670.34;5093866;28;20443;-83
2023/04/22 05:38:16;;;;;;;9.57;8.67;;;;;;;17.23;54.55;94671.28;5093598;28;20530;-82
2023/04/22 05:40:43;;;;;;;11.90;8.90;;;;;;;17.21;55.82;94670.63;5041232;28;20441;-83
2023/04/22 05:43:11;;;;;;;14.77;9.40;;;;;;;17.27;55.22;94665.44;5093439;28;20450;-82
2023/04/22 05:45:38;;;;;;;14.20;10.33;;;;;;;17.16;55.63;94665.84;5093592;28;21068;-87
2023/04/22 05:48:05;;;;;;;13.67;10.40;;;;;;;17.27;56.81;94665.44;5093340;28;21170;-87
2023/04/22 05:50:32;;;;;;;10.00;7.90;;;;;;;17.54;55.66;94666.72;5040784;28;20451;-81
2023/04/22 05:52:59;;;;;;;7.23;6.50;;;;;;;17.81;54.24;94665.38;5093595;28;20479;-81
2023/04/22 05:55:26;;;;;;;14.77;8.47;;;;;;;18.12;52.97;94659.09;5094112;28;20423;-82
2023/04/22 05:57:53;;;;;;;11.00;7.73;;;;;;;18.18;52.22;94664.50;5100101;28;20520;-82
2023/04/22 06:00:21;;;;;;;7.90;7.20;;;;;;;18.25;51.74;94665.47;5095154;28;20782;-81
2023/04/22 06:02:48;;;;;;;12.03;8.10;;;;;;;18.37;51.48;94663.16;5094233;28;20435;-82
2023/04/22 06:05:15;;;;;;;9.90;8.53;;;;;;;18.69;51.48;94658.50;5094173;28;20441;-82
2023/04/22 06:17:54;;;;;;;8.73;7.93;;;;;;;21.71;46.90;94655.56;5113393;28;20383;-84
2023/04/22 06:20:21;;;;;;;11.80;8.97;;;;;;;21.95;44.82;94651.44;5064552;28;20559;-86
2023/04/22 06:22:48;;;;;;;10.00;8.57;;;;;;;22.32;44.88;94658.03;5119479;28;20426;-86
2023/04/22 06:25:15;;;;;;;8.70;7.90;;;;;;;22.79;44.45;94648.84;5116121;28;20536;-81
2023/04/22 06:27:41;;;;;;;9.53;7.93;;;;;;;22.97;42.76;94655.41;5112407;28;20419;-84
2023/04/22 06:36:54;;;;;;;16.90;9.90;;;;;;;21.81;47.24;94663.97;5110355;28;20429;-84
2023/04/22 06:39:20;;;;;;;12.13;9.00;;;;;;;21.45;46.14;94664.34;5105998;28;20438;-81
2023/04/22 06:41:48;;;;;;;12.73;9.20;;;;;;;21.06;45.41;94666.84;5103212;28;20440;-81
2023/04/22 06:44:15;;;;;;;18.63;10.70;;;;;;;20.92;45.63;94665.97;5103364;28;20531;-80
2023/04/22 06:46:41;;;;;;;13.67;10.40;;;;;;;20.39;46.24;94658.50;5099613;28;20487;-80
2023/04/22 06:49:08;;;;;;;10.33;9.33;;;;;;;19.85;47.91;94663.63;5101603;28;20451;-80
2023/04/22 06:51:35;;;;;;;10.70;9.23;;;;;;;19.64;50.23;94656.47;5101148;28;20460;-81
2023/04/22 06:54:03;;;;;;;14.03;10.13;;;;;;;19.62;50.50;94660.34;5049605;28;20483;-80
2023/04/22 06:56:30;;;;;;;11.33;9.47;;;;;;;19.82;51.89;94663.19;5098684;28;20441;-80
2023/04/22 06:58:57;;;;;;;11.67;9.67;;;;;;;19.92;49.63;94653.03;5064360;28;20470;-80
2023/04/22 07:01:24;;;;;;;13.20;9.93;;;;;;;20.28;50.62;94652.91;5108620;28;20448;-83
2023/04/22 07:03:51;;;;;;;13.10;8.67;;;;;;;20.48;47.08;94653.03;5106834;28;21005;-81
2023/04/22 07:06:18;;;;;;;13.33;9.00;;;;;;;20.75;47.03;94654.81;5103624;28;20507;-81
2023/04/22 07:08:45;;;;;;;13.20;9.87;;;;;;;20.99;45.88;94646.31;5102579;28;20525;-81
2023/04/22 07:11:13;;;;;;;8.77;7.90;;;;;;;21.49;45.49;94654.91;5101638;28;20486;-81
2023/04/22 07:13:40;;;;;;;13.23;8.63;;;;;;;21.86;44.60;94658.84;5102671;28;20492;-81
2023/04/22 07:16:06;;;;;;;9.57;8.07;;;;;;;22.09;43.83;94663.81;5101673;28;20916;-80
2023/04/22 07:18:34;;;;;;;11.37;7.40;;;;;;;22.23;44.12;94651.25;5111407;28;20452;-80
2023/04/22 07:21:01;;;;;;;6.50;6.00;;;;;;;22.17;42.07;94655.56;5108639;28;20520;-81
2023/04/22 07:23:28;;;;;;;8.40;7.60;;;;;;;21.74;43.46;94655.13;5094514;28;20437;-81
2023/04/22 07:25:55;;;;;;;8.97;6.80;;;;;;;21.10;44.57;94652.91;5111288;28;20456;-80
2023/04/22 07:28:23;;;;;;;9.10;7.20;;;;;;;20.52;46.38;94663.09;5118530;28;20452;-81
2023/04/22 07:30:50;;;;;;;6.53;5.93;;;;;;;20.10;48.64;94666.69;5119319;28;20469;-81
2023/04/22 07:33:17;;;;;;;10.53;7.00;;;;;;;19.74;49.28;94662.31;5119500;28;20477;-81
2023/04/22 07:35:44;;;;;;;8.70;7.70;;;;;;;19.31;51.15;94656.13;5119408;28;20440;-80
2023/04/22 07:38:10;;;;;;;7.57;6.53;;;;;;;19.15;51.80;94673.19;5119633;28;20419;-80
2023/04/22 07:40:37;;;;;;;7.73;7.03;;;;;;;19.29;51.51;94663.50;5119564;28;20429;-80
2023/04/22 07:43:04;;;;;;;9.77;7.30;;;;;;;19.34;51.39;94665.56;5119214;28;20442;-79
2023/04/22 07:45:33;;;;;;;11.17;6.60;;;;;;;19.41;50.36;94667.31;5119430;28;20450;-80
2023/04/22 07:47:59;;;;;;;8.27;6.80;;;;;;;19.48;50.17;94668.19;5118656;28;20448;-80
2023/04/22 07:50:26;;;;;;;9.30;7.83;;;;;;;19.32;49.93;94657.78;5119247;28;20443;-80
2023/04/22 07:52:53;;;;;;;8.33;7.50;;;;;;;19.60;50.80;94660.53;5119709;28;20485;-79
2023/04/22 07:55:20;;;;;;;8.20;7.40;;;;;;;19.75;49.53;94653.31;5068210;28;20426;-80
2023/04/22 07:57:47;;;;;;;8.40;6.30;;;;;;;19.96;47.76;94662.31;5119093;28;20430;-80
2023/04/22 08:00:14;;;;;;;7.80;6.67;;;;;;;20.02;48.30;94654.38;5119232;28;20420;-80
2023/04/22 08:02:43;;;;;;;10.13;6.87;;;;;;;20.26;48.22;94644.28;5064592;28;20445;-81
2023/04/22 08:05:10;;;;;;;6.90;5.60;;;;;;;20.54;48.20;94652.28;5096046;28;20530;-81
2023/04/22 08:07:37;;;;;;;6.70;6.07;;;;;;;20.70;46.41;94641.25;5108813;28;20818;-81
2023/04/22 08:10:05;;;;;;;7.67;6.80;;;;;;;20.91;45.46;94648.34;5042934;28;20449;-81
2023/04/22 08:12:31;;;;;;;6.83;6.23;;;;;;;20.49;46.35;94646.69;4994393;28;20448;-81
2023/04/22 08:14:58;;;;;;;8.90;6.43;;;;;;;20.22;46.39;94646.47;5094751;28;20435;-81
2023/04/22 08:17:25;;;;;;;7.17;5.87;;;;;;;20.51;46.01;94645.47;5094595;28;20440;-81
2023/04/22 08:19:53;;;;;;;9.17;6.43;;;;;;;19.96;46.05;94638.34;5094621;28;20447;-80
2023/04/22 08:22:20;;;;;;;7.80;6.63;;;;;;;20.24;47.24;94635.63;5094225;28;20931;-80
2023/04/22 08:24:47;;;;;;;11.20;7.20;;;;;;;20.04;46.11;94640.84;5094187;28;20863;-79
2023/04/22 08:27:13;;;;;;;8.47;6.73;;;;;;;19.95;49.76;94634.84;5094511;28;20450;-80
2023/04/22 08:29:40;;;;;;;6.83;6.20;;;;;;;19.86;50.00;94638.66;5058838;28;20442;-80
2023/04/22 08:32:07;;;;;;;7.47;6.77;;;;;;;19.95;48.24;94636.66;5094080;28;20983;-80
2023/04/22 08:34:34;;;;;;;9.80;6.80;;;;;;;20.02;47.91;94635.72;5094260;28;20580;-80
2023/04/22 08:37:02;;;;;;;7.43;6.57;;;;;;;20.13;47.13;94629.00;5094322;28;20453;-79
2023/04/22 08:39:29;;;;;;;6.30;5.70;;;;;;;19.58;47.98;94624.50;5093822;28;20524;-81
2023/04/22 08:41:57;;;;;;;9.83;7.23;;;;;;;19.21;49.46;94622.88;5092783;28;20440;-81
2023/04/22 08:44:24;;;;;;;14.27;6.77;;;;;;;19.55;47.85;94616.88;5092638;28;20470;-81
2023/04/22 08:46:51;;;;;;;8.23;6.17;;;;;;;19.90;48.29;94605.28;5092386;28;20831;-81
2023/04/22 08:49:19;;;;;;;9.57;6.00;;;;;;;20.12;47.88;94608.72;5040615;28;20448;-82
2023/04/22 08:51:46;;;;;;;8.60;7.80;;;;;;;19.85;47.01;94593.56;5040308;28;20438;-81
2023/04/22 08:54:15;;;;;;;10.07;6.90;;;;;;;19.65;48.32;94594.25;5092701;28;20479;-80
2023/04/22 08:56:44;;;;;;;9.47;8.57;;;;;;;19.68;48.74;94601.88;5040885;28;20538;-81
2023/04/22 08:59:11;;;;;;;10.10;7.50;;;;;;;19.92;47.56;94605.91;5092456;28;20877;-80
2023/04/22 09:01:39;;;;;;;9.87;7.30;;;;;;;20.15;45.89;94603.00;5092896;28;20449;-81
2023/04/22 09:04:07;;;;;;;7.53;6.67;;;;;;;20.45;47.22;94602.78;5092427;28;20467;-81
2023/04/22 09:06:33;;;;;;;9.83;8.20;;;;;;;20.75;45.76;94601.47;5092666;28;20527;-81
2023/04/22 09:09:00;;;;;;;12.20;7.73;;;;;;;20.88;44.83;94593.53;5092254;28;20446;-81
2023/04/22 09:11:29;;;;;;;6.67;5.97;;;;;;;20.76;44.25;94596.97;5093002;28;20447;-81
2023/04/22 09:13:56;;;;;;;12.70;7.87;;;;;;;20.89;45.10;94595.19;5092553;28;20543;-81
2023/04/22 09:16:22;;;;;;;8.17;7.43;;;;;;;20.95;43.63;94586.38;5092350;28;20445;-82
2023/04/22 09:18:50;;;;;;;11.60;8.00;;;;;;;20.69;45.21;94579.09;5092523;28;20446;-81
2023/04/22 09:21:17;;;;;;;16.20;8.83;;;;;;;20.68;44.21;94587.31;5092286;28;20448;-80
2023/04/22 09:23:46;;;;;;;9.27;8.40;;;;;;;20.63;44.80;94589.75;5092002;28;20443;-79
2023/04/22 09:26:13;;;;;;;10.87;7.77;;;;;;;20.73;43.19;94585.69;5092155;28;20452;-80
2023/04/22 09:28:49;;;;;;;10.70;7.47;;;;;;;20.64;42.82;94580.72;5040420;28;20444;-81
2023/04/22 09:31:16;;;;;;;10.13;6.33;;;;;;;20.53;43.17;94574.13;5092214;28;20573;-81
2023/04/22 09:33:47;;;;;;;13.43;7.80;;;;;;;20.56;43.85;94575.59;5040170;28;20484;-80
2023/04/22 09:36:14;;;;;;;8.37;6.50;;;;;;;20.73;43.33;94572.34;5092347;28;20878;-81
2023/04/22 09:38:47;;;;;;;7.53;6.83;;;;;;;20.94;44.32;94570.56;5091643;28;20457;-83
2023/04/22 09:41:14;;;;;;;9.83;7.63;;;;;;;20.81;42.84;94562.50;5044489;28;20448;-79
2023/04/22 09:43:43;;;;;;;7.23;6.50;;;;;;;20.98;42.32;94559.28;5093185;28;20429;-82
2023/04/22 09:46:10;;;;;;;8.50;7.60;;;;;;;20.98;43.15;94561.13;5093394;28;20440;-81
2023/04/22 09:48:43;;;;;;;9.77;7.70;;;;;;;20.82;42.89;94570.34;5041474;28;20835;-81
2023/04/22 09:51:15;;;;;;;7.50;6.80;;;;;;;20.53;43.14;94568.81;5058149;28;20969;-80
2023/04/22 09:53:42;;;;;;;10.63;6.70;;;;;;;20.08;42.72;94565.66;5097214;28;20519;-82
2023/04/22 09:56:10;;;;;;;8.23;5.83;;;;;;;19.52;43.38;94559.50;5097110;28;20459;-81
2023/04/22 09:58:39;;;;;;;9.27;6.97;;;;;;;19.32;44.56;94550.53;5097073;28;20475;-81
2023/04/22 10:01:08;;;;;;;7.13;6.43;;;;;;;19.16;44.38;94568.41;5097407;28;20510;-81
2023/04/22 10:03:34;;;;;;;10.93;7.17;;;;;;;18.78;45.26;94561.66;5097228;28;20877;-82
2023/04/22 10:06:02;;;;;;;25.93;7.63;;;;;;;18.78;46.06;94564.31;5097104;28;20480;-80
2023/04/22 10:08:32;;;;;;;11.73;4.00;;;;;;;18.11;47.04;94556.56;5097348;28;20422;-81
2023/04/22 10:10:58;;;;;;;7.13;4.60;;;;;;;17.61;48.90;94566.00;5096775;28;20433;-81
2023/04/22 10:13:25;;;;;;;5.10;4.23;;;;;;;17.39;50.03;94578.34;5097019;28;20439;-80
2023/04/22 10:15:55;;;;;;;4.87;3.60;;;;;;;17.23;49.54;94578.47;5097231;28;20439;-81
2023/04/22 10:18:27;;;;;;;6.10;3.17;;;;;;;17.11;48.08;94575.41;5096787;28;20924;-80
2023/04/22 10:20:56;;;;;;;6.30;3.40;;;;;;;17.02;47.43;94569.31;5061216;28;20442;-79
2023/04/22 10:23:24;;;;;;;4.60;3.37;;;;;;;17.09;46.71;94574.78;5097524;28;20452;-79
2023/04/22 10:25:54;;;;;;;8.33;3.00;;;;;;;17.38;44.94;94566.06;5096800;28;20444;-79
2023/04/22 10:28:24;;;;;;;3.07;2.47;;;;;;;17.16;44.54;94569.56;5096737;28;20447;-79
2023/04/22 10:30:51;;;;;;;3.30;3.00;;;;;;;17.08;45.32;94570.47;5096368;28;20454;-80
2023/04/22 10:33:38;;;;;;;4.80;2.90;;;;;;;16.86;46.24;94571.28;5096552;28;20437;-81
2023/04/22 10:36:07;;;;;;;7.50;3.20;;;;;;;17.03;46.67;94568.31;5096828;28;20501;-81
2023/04/22 10:38:34;;;;;;;2.77;2.57;;;;;;;17.24;45.62;94578.28;5061094;28;20502;-81
2023/04/22 10:41:03;;;;;;;3.17;2.83;;;;;;;17.21;44.68;94568.03;5096529;28;20484;-81
2023/04/22 10:43:44;;;;;;;3.33;2.80;;;;;;;17.27;46.83;94567.31;5096893;28;20444;-80
2023/04/22 10:46:44;;;;;;;4.47;3.30;;;;;;;17.13;46.33;94567.28;5095735;28;20443;-80
2023/04/22 10:49:15;;;;;;;3.40;3.10;;;;;;;17.09;45.92;94564.16;5096097;28;20450;-82
2023/04/22 10:51:44;;;;;;;3.23;2.93;;;;;;;17.23;45.45;94562.56;5096782;28;20432;-82
2023/04/22 10:54:55;;;;;;;6.73;3.27;;;;;;;17.29;44.58;94554.69;5096617;28;20967;-84
2023/04/22 10:57:22;;;;;;;3.13;2.93;;;;;;;17.26;43.36;94557.72;5096495;28;20463;-80
2023/04/22 10:59:52;;;;;;;2.47;2.27;;;;;;;17.45;43.71;94555.56;5096292;28;20451;-78
2023/04/22 11:02:20;;;;;;;3.40;3.10;;;;;;;17.72;42.80;94554.19;5096016;28;20443;-80
2023/04/22 11:04:51;;;;;;;6.00;3.80;;;;;;;17.77;44.12;94551.78;5095843;28;20444;-80
2023/04/22 11:07:33;;;;;;;3.80;3.10;;;;;;;18.02;42.76;94553.19;5095342;28;20530;-83
2023/04/22 11:10:03;;;;;;;10.90;2.90;;;;;;;18.04;41.99;94563.63;5095578;28;20441;-84
2023/04/22 11:12:43;;;;;;;4.40;3.80;;;;;;;18.10;43.40;94555.72;5059744;28;20481;-79
2023/04/22 11:15:11;;;;;;;9.73;4.60;;;;;;;18.00;44.76;94549.06;5096077;28;20571;-81
2023/04/22 11:17:39;;;;;;;10.90;4.20;;;;;;;17.94;45.10;94556.75;5096263;28;20433;-80
2023/04/22 11:20:09;;;;;;;4.33;3.87;;;;;;;18.18;43.92;94552.13;5096008;28;20985;-79
2023/04/22 11:22:37;;;;;;;6.77;3.27;;;;;;;18.11;40.26;94552.06;5095819;28;20440;-79
2023/04/22 11:25:05;;;;;;;10.50;3.70;;;;;;;18.08;41.26;94554.25;5043542;28;20436;-79
2023/04/22 11:27:32;;;;;;;2.80;2.40;;;;;;;18.10;41.56;94552.25;5043746;28;20437;-79
2023/04/22 11:30:02;;;;;;;5.43;3.73;;;;;;;18.08;44.31;94546.31;5095215;28;20437;-80
2023/04/22 11:32:29;;;;;;;8.97;2.90;;;;;;;18.18;45.08;94554.78;5095673;28;20794;-83
2023/04/22 11:34:56;;;;;;;3.70;2.83;;;;;;;18.09;45.85;94559.38;5081988;28;20501;-79
2023/04/22 11:37:25;;;;;;;4.07;3.20;;;;;;;17.79;44.11;94569.19;5075665;28;20485;-79
2023/04/22 11:39:51;;;;;;;3.40;3.10;;;;;;;17.67;43.32;94564.47;5075738;28;20446;-78
2023/04/22 11:42:21;;;;;;;3.40;2.93;;;;;;;17.62;44.13;94567.66;5075715;28;20911;-79
2023/04/22 11:44:48;;;;;;;4.37;2.60;;;;;;;17.79;44.79;94574.50;5075508;28;20855;-80
2023/04/22 11:47:15;;;;;;;6.00;2.90;;;;;;;17.91;45.64;94566.88;5028110;28;20494;-80
2023/04/22 11:49:42;;;;;;;9.30;2.70;;;;;;;17.98;45.75;94573.13;5094814;28;20429;-80
2023/04/22 11:52:08;;;;;;;2.47;2.27;;;;;;;17.83;45.52;94570.47;5074563;28;20532;-81
2023/04/22 11:54:37;;;;;;;2.70;2.50;;;;;;;17.69;45.04;94581.91;5074793;28;20471;-81
2023/04/22 11:57:08;;;;;;;3.33;2.47;;;;;;;17.72;45.49;94586.84;5074948;28;20441;-81
2023/04/22 11:59:35;;;;;;;4.47;2.80;;;;;;;17.58;47.14;94579.63;5074920;28;20481;-81
2023/04/22 12:02:05;;;;;;;3.37;2.87;;;;;;;17.63;46.45;94585.22;5074817;28;20452;-81
2023/04/22 12:04:36;;;;;;;6.60;3.00;;;;;;;17.73;46.41;94575.22;5074461;28;20494;-80
2023/04/22 12:07:03;;;;;;;5.37;3.67;;;;;;;17.69;45.41;94565.97;5074615;28;20443;-81
2023/04/22 12:09:30;;;;;;;5.10;3.00;;;;;;;17.74;45.85;94587.50;5074578;28;20438;-80
2023/04/22 12:12:00;;;;;;;5.17;3.27;;;;;;;17.85;45.74;94584.38;5074334;28;20532;-80
2023/04/22 12:14:31;;;;;;;6.53;3.43;;;;;;;17.80;45.78;94578.78;5074006;28;20513;-80
2023/04/22 12:16:58;;;;;;;4.33;3.73;;;;;;;17.66;45.37;94584.88;5087604;28;20452;-81
2023/04/22 12:19:26;;;;;;;6.47;4.30;;;;;;;17.58;46.36;94582.28;5095187;28;20431;-80
2023/04/22 12:21:55;;;;;;;3.43;3.10;;;;;;;17.69;47.97;94584.56;5094822;28;20460;-80
2023/04/22 12:31:08;;;;;;;4.80;3.67;;;;;;;17.55;49.66;94587.97;5074158;28;20429;-81
2023/04/22 12:33:36;;;;;;;9.53;3.20;;;;;;;17.55;49.01;94587.97;5055738;28;20495;-80
2023/04/22 12:36:03;;;;;;;4.87;3.97;;;;;;;17.62;48.56;94578.28;5074828;28;20496;-80
2023/04/22 12:38:30;;;;;;;2.80;2.60;;;;;;;17.25;48.34;94587.88;5091209;28;20476;-81
2023/04/22 12:40:58;;;;;;;3.40;3.10;;;;;;;17.22;48.65;94590.06;5094252;28;20847;-80
2023/04/22 12:43:24;;;;;;;6.90;3.07;;;;;;;17.41;49.65;94586.94;5038841;28;20506;-81